createdAt,value
2023-05-03T00:01:01.088Z,1.30
2023-05-03T00:03:29.315Z,1.40
2023-05-03T00:05:56.134Z,1.45
2023-05-03T00:08:23.054Z,1.17
2023-05-03T00:10:50.069Z,1.10
2023-05-03T00:13:16.885Z,1.67
2023-05-03T00:15:43.671Z,1.48
2023-05-03T00:18:10.901Z,1.30
2023-05-03T00:20:37.853Z,1.20
2023-05-03T00:23:04.735Z,1.05
2023-05-03T00:25:31.746Z,1.15
2023-05-03T00:27:58.568Z,1.02
2023-05-03T00:30:25.808Z,1.30
2023-05-03T00:32:52.711Z,1.20
2023-05-03T00:35:19.633Z,1.30
2023-05-03T00:37:46.392Z,1.10
2023-05-03T00:40:14.558Z,1.15
2023-05-03T00:42:41.328Z,1.73
2023-05-03T00:45:08.425Z,1.23
2023-05-03T00:47:37.152Z,1.00
2023-05-03T00:50:05.346Z,1.30
2023-05-03T00:52:32.695Z,1.20
2023-05-03T00:55:00.718Z,1.20
2023-05-03T00:57:29.710Z,1.13
2023-05-03T00:59:59.792Z,1.17
2023-05-03T01:02:28.527Z,1.30
2023-05-03T01:04:56.203Z,1.23
2023-05-03T01:08:05.870Z,1.35
2023-05-03T01:11:00.331Z,1.63
2023-05-03T01:13:50.496Z,1.25
2023-05-03T01:16:31.463Z,1.55
2023-05-03T01:19:02.947Z,1.40
2023-05-03T01:21:31.196Z,1.40
2023-05-03T01:24:11.740Z,1.17
2023-05-03T01:26:39.565Z,1.20
2023-05-03T01:29:06.316Z,1.30
2023-05-03T01:32:04.145Z,1.20
2023-05-03T01:34:44.176Z,0.90
2023-05-03T01:37:13.535Z,1.10
2023-05-03T01:39:59.862Z,1.30
2023-05-03T01:42:27.567Z,1.20
2023-05-03T01:44:56.075Z,1.02
2023-05-03T01:47:23.406Z,1.50
2023-05-03T01:49:50.238Z,1.35
2023-05-03T01:52:17.750Z,1.52
2023-05-03T01:54:44.772Z,1.27
2023-05-03T01:57:11.914Z,1.20
2023-05-03T01:59:38.693Z,1.77
2023-05-03T02:02:05.553Z,1.30
2023-05-03T02:04:32.545Z,1.15
2023-05-03T02:06:59.516Z,1.05
2023-05-03T02:09:26.486Z,1.00
2023-05-03T02:11:53.302Z,1.17
2023-05-03T02:14:20.096Z,1.45
2023-05-03T02:16:46.918Z,1.23
2023-05-03T02:19:13.897Z,1.13
2023-05-03T02:21:40.970Z,1.38
2023-05-03T02:24:08.013Z,1.85
2023-05-03T02:26:35.093Z,1.30
2023-05-03T02:29:01.812Z,1.08
2023-05-03T02:31:29.201Z,1.10
2023-05-03T02:33:55.972Z,1.40
2023-05-03T02:36:23.018Z,1.10
2023-05-03T02:38:50.018Z,1.25
2023-05-03T02:41:16.737Z,1.30
2023-05-03T02:43:43.706Z,1.40
2023-05-03T02:46:10.752Z,1.15
2023-05-03T02:48:38.325Z,1.52
2023-05-03T02:51:06.084Z,1.30
2023-05-03T02:53:33.004Z,1.30
2023-05-03T02:55:59.761Z,1.92
2023-05-03T02:58:26.868Z,1.42
2023-05-03T03:00:53.632Z,1.38
2023-05-03T03:03:20.558Z,1.20
2023-05-03T03:05:47.363Z,1.35
2023-05-03T03:08:14.188Z,1.17
2023-05-03T03:10:41.140Z,1.40
2023-05-03T03:13:08.149Z,1.13
2023-05-03T03:15:34.980Z,1.35
2023-05-03T03:18:01.938Z,1.30
2023-05-03T03:20:29.061Z,1.50
2023-05-03T03:22:55.976Z,1.50
2023-05-03T03:25:23.162Z,1.40
2023-05-03T03:27:49.940Z,1.25
2023-05-03T03:30:16.888Z,1.40
2023-05-03T03:32:43.881Z,1.45
2023-05-03T03:35:10.909Z,1.30
2023-05-03T03:37:39.244Z,1.52
2023-05-03T03:40:07.760Z,1.63
2023-05-03T03:42:34.630Z,1.42
2023-05-03T03:45:01.604Z,1.50
2023-05-03T03:47:28.465Z,1.38
2023-05-03T03:49:55.461Z,1.27
2023-05-03T03:52:22.453Z,1.27
2023-05-03T03:54:49.381Z,1.40
2023-05-03T03:57:16.449Z,1.13
2023-05-03T03:59:43.395Z,1.40
2023-05-03T04:02:10.608Z,1.17
2023-05-03T04:04:37.689Z,1.23
2023-05-03T04:07:04.841Z,1.45
2023-05-03T04:09:31.944Z,1.13
2023-05-03T04:11:59.307Z,1.30
2023-05-03T04:14:26.040Z,1.40
2023-05-03T04:16:52.848Z,1.00
2023-05-03T04:19:19.711Z,1.50
2023-05-03T04:21:46.917Z,1.20
2023-05-03T04:24:17.596Z,1.27
2023-05-03T04:26:45.113Z,1.60
2023-05-03T04:29:12.700Z,1.10
2023-05-03T04:31:39.967Z,1.13
2023-05-03T04:34:07.763Z,1.30
2023-05-03T04:36:34.667Z,1.30
2023-05-03T04:39:01.630Z,1.65
2023-05-03T04:41:28.492Z,1.55
2023-05-03T04:43:55.217Z,0.80
2023-05-03T04:46:22.578Z,1.40
2023-05-03T04:48:49.409Z,1.23
2023-05-03T04:51:17.007Z,0.90
2023-05-03T04:53:44.038Z,0.98
2023-05-03T04:56:11.126Z,0.80
2023-05-03T04:58:38.128Z,1.30
2023-05-03T05:01:05.203Z,1.98
2023-05-03T05:03:32.518Z,1.00
2023-05-03T05:05:59.363Z,0.90
2023-05-03T05:08:26.104Z,0.77
2023-05-03T05:10:52.889Z,0.88
2023-05-03T05:13:19.785Z,1.05
2023-05-03T05:15:46.708Z,0.68
2023-05-03T05:18:13.722Z,1.40
2023-05-03T05:20:40.650Z,0.90
2023-05-03T05:23:07.691Z,0.65
2023-05-03T05:25:34.789Z,0.70
2023-05-03T05:28:01.732Z,1.25
2023-05-03T05:30:28.439Z,0.90
2023-05-03T05:32:55.631Z,1.00
2023-05-03T05:35:22.914Z,0.50
2023-05-03T05:37:49.784Z,0.65
2023-05-03T05:40:16.728Z,1.13
2023-05-03T05:42:43.756Z,0.70
2023-05-03T05:45:11.730Z,0.77
2023-05-03T05:47:38.680Z,0.60
2023-05-03T05:50:16.757Z,0.63
2023-05-03T05:52:45.458Z,0.30
2023-05-03T05:55:14.843Z,0.50
2023-05-03T05:57:41.985Z,0.50
2023-05-03T06:00:14.710Z,0.50
2023-05-03T06:02:42.444Z,0.60
2023-05-03T06:05:10.855Z,0.60
2023-05-03T06:07:38.173Z,0.60
2023-05-03T06:10:05.668Z,0.70
2023-05-03T06:12:32.529Z,1.40
2023-05-03T06:15:02.914Z,0.30
2023-05-03T06:17:30.353Z,0.40
2023-05-03T06:19:58.130Z,0.90
2023-05-03T06:22:25.674Z,0.90
2023-05-03T06:24:53.234Z,0.52
2023-05-03T06:27:20.156Z,0.60
2023-05-03T06:29:48.186Z,0.70
2023-05-03T06:32:15.083Z,0.77
2023-05-03T06:34:41.905Z,0.40
2023-05-03T06:37:08.914Z,0.95
2023-05-03T06:39:36.179Z,0.40
2023-05-03T06:42:03.509Z,0.60
2023-05-03T06:44:30.249Z,0.60
2023-05-03T06:46:57.254Z,0.70
2023-05-03T06:49:24.209Z,0.73
2023-05-03T06:51:51.216Z,0.40
2023-05-03T06:54:20.283Z,0.95
2023-05-03T06:56:47.198Z,0.30
2023-05-03T06:59:14.310Z,0.60
2023-05-03T07:01:41.403Z,0.40
2023-05-03T07:04:08.482Z,0.77
2023-05-03T07:06:48.314Z,1.23
2023-05-03T07:09:35.463Z,0.75
2023-05-03T07:12:08.858Z,0.32
2023-05-03T07:14:36.134Z,0.30
2023-05-03T07:17:03.079Z,0.60
2023-05-03T07:19:30.639Z,0.38
2023-05-03T07:21:57.790Z,0.50
2023-05-03T07:24:27.581Z,0.50
2023-05-03T07:26:59.458Z,0.52
2023-05-03T07:29:27.494Z,0.45
2023-05-03T07:31:54.701Z,0.30
2023-05-03T07:34:21.848Z,0.55
2023-05-03T07:36:48.908Z,0.50
2023-05-03T07:39:16.082Z,0.40
2023-05-03T07:41:42.873Z,0.40
2023-05-03T07:44:09.603Z,0.35
2023-05-03T07:46:36.663Z,0.45
2023-05-03T07:49:04.769Z,0.30
2023-05-03T07:51:36.564Z,0.38
2023-05-03T07:54:04.499Z,0.47
2023-05-03T07:56:31.882Z,0.40
2023-05-03T07:59:08.183Z,0.28
2023-05-03T08:01:36.867Z,0.38
2023-05-03T08:04:04.654Z,0.60
2023-05-03T08:06:32.428Z,0.22
2023-05-03T08:08:59.580Z,0.45
2023-05-03T08:11:29.104Z,0.50
2023-05-03T08:13:56.666Z,0.57
2023-05-03T08:16:23.701Z,0.38
2023-05-03T08:18:50.634Z,0.70
2023-05-03T08:21:17.882Z,0.60
2023-05-03T08:23:45.234Z,0.45
2023-05-03T08:26:14.376Z,0.70
2023-05-03T08:28:41.805Z,0.40
2023-05-03T08:31:08.970Z,0.30
2023-05-03T08:33:35.973Z,0.43
2023-05-03T08:36:03.377Z,0.32
2023-05-03T08:38:30.300Z,0.55
2023-05-03T08:40:59.688Z,0.50
2023-05-03T08:43:29.009Z,0.30
2023-05-03T08:45:56.036Z,0.50
2023-05-03T08:48:23.550Z,0.40
2023-05-03T08:50:52.356Z,0.40
2023-05-03T08:53:19.547Z,0.50
2023-05-03T08:55:46.447Z,0.43
2023-05-03T08:58:13.802Z,0.90
2023-05-03T09:00:45.407Z,0.50
2023-05-03T09:03:13.249Z,1.35
2023-05-03T09:05:41.553Z,0.70
2023-05-03T09:08:10.806Z,0.43
2023-05-03T09:10:41.362Z,0.55
2023-05-03T09:13:09.559Z,0.38
2023-05-03T09:15:36.809Z,0.88
2023-05-03T09:18:12.833Z,0.40
2023-05-03T09:20:41.285Z,0.60
2023-05-03T09:23:09.803Z,0.60
2023-05-03T09:25:51.672Z,0.65
2023-05-03T09:28:20.421Z,1.02
2023-05-03T09:30:48.948Z,0.50
2023-05-03T09:33:21.405Z,0.90
2023-05-03T09:36:00.718Z,0.40
2023-05-03T09:38:29.322Z,0.70
2023-05-03T09:40:56.483Z,0.40
2023-05-03T09:43:23.205Z,0.50
2023-05-03T09:45:50.389Z,0.68
2023-05-03T09:48:17.701Z,0.30
2023-05-03T09:50:44.828Z,0.32
2023-05-03T09:53:11.581Z,0.45
2023-05-03T09:55:40.399Z,0.43
2023-05-03T09:58:08.361Z,0.25
2023-05-03T10:00:39.807Z,0.45
2023-05-03T10:03:18.407Z,0.30
2023-05-03T10:05:49.921Z,0.45
2023-05-03T10:08:34.094Z,0.30
2023-05-03T10:11:04.870Z,0.30
2023-05-03T10:13:32.104Z,0.40
2023-05-03T10:16:13.904Z,0.30
2023-05-03T10:18:52.504Z,0.52
2023-05-03T10:21:30.082Z,0.30
2023-05-03T10:24:14.756Z,0.70
2023-05-03T10:26:42.688Z,0.30
2023-05-03T10:29:37.823Z,0.35
2023-05-03T10:32:05.830Z,0.20
2023-05-03T10:34:39.785Z,0.30
2023-05-03T10:37:11.806Z,0.33
2023-05-03T10:39:44.771Z,0.55
2023-05-03T10:42:11.669Z,0.30
2023-05-03T10:44:40.664Z,0.32
2023-05-03T10:47:18.321Z,0.30
2023-05-03T10:49:46.095Z,0.45
2023-05-03T10:52:43.671Z,1.02
2023-05-03T10:55:19.498Z,0.70
2023-05-03T10:57:48.133Z,0.47
2023-05-03T11:00:18.835Z,0.40
2023-05-03T11:03:04.102Z,0.60
2023-05-03T11:08:20.565Z,1.00
2023-05-03T11:10:57.341Z,0.50
2023-05-03T11:13:24.569Z,0.40
2023-05-03T11:15:56.526Z,0.43
2023-05-03T11:18:26.272Z,0.40
2023-05-03T11:20:54.069Z,0.40
2023-05-03T11:23:29.085Z,0.30
2023-05-03T11:25:58.181Z,0.50
2023-05-03T11:28:26.103Z,0.77
2023-05-03T11:30:53.402Z,0.52
2023-05-03T11:33:20.592Z,1.00
2023-05-03T11:35:47.574Z,0.55
2023-05-03T11:38:14.663Z,0.40
2023-05-03T11:40:41.932Z,1.10
2023-05-03T11:43:08.814Z,0.77
2023-05-03T11:45:40.054Z,0.40
2023-05-03T11:48:07.705Z,0.50
2023-05-03T11:50:53.989Z,0.57
2023-05-03T11:53:22.389Z,0.40
2023-05-03T11:55:53.481Z,0.60
2023-05-03T11:58:29.562Z,0.68
2023-05-03T12:00:57.664Z,0.57
2023-05-03T12:03:30.549Z,0.70
2023-05-03T12:06:01.315Z,0.43
2023-05-03T12:08:36.686Z,0.80
2023-05-03T12:11:07.333Z,0.45
2023-05-03T12:13:39.606Z,0.45
2023-05-03T12:16:13.319Z,0.50
2023-05-03T12:18:47.807Z,0.82
2023-05-03T12:23:48.587Z,0.40
2023-05-03T12:26:19.270Z,0.40
2023-05-03T12:28:49.179Z,0.50
2023-05-03T12:31:18.249Z,0.70
2023-05-03T12:33:57.713Z,0.60
2023-05-03T12:36:37.809Z,0.40
2023-05-03T12:39:09.343Z,0.40
2023-05-03T12:44:10.278Z,0.70
2023-05-03T12:46:39.301Z,0.40
2023-05-03T12:49:08.041Z,0.50
2023-05-03T12:51:35.818Z,0.40
2023-05-03T12:54:04.237Z,0.30
2023-05-03T12:56:32.937Z,0.80
2023-05-03T12:59:27.665Z,0.52
2023-05-03T13:03:09.377Z,0.80
2023-05-03T13:04:56.906Z,0.40
2023-05-03T13:07:29.690Z,0.50
2023-05-03T13:12:31.105Z,0.70
2023-05-03T13:14:58.281Z,0.30
2023-05-03T13:17:25.295Z,0.43
2023-05-03T13:19:53.683Z,0.50
2023-05-03T13:22:20.766Z,0.47
2023-05-03T13:24:48.487Z,0.55
2023-05-03T13:27:16.708Z,0.35
2023-05-03T13:29:45.231Z,0.88
2023-05-03T13:32:13.917Z,0.60
2023-05-03T13:34:40.870Z,0.60
2023-05-03T13:37:10.689Z,0.50
2023-05-03T13:39:37.771Z,0.50
2023-05-03T13:42:04.702Z,0.70
2023-05-03T13:44:31.774Z,0.93
2023-05-03T13:46:58.861Z,0.50
2023-05-03T13:49:25.782Z,0.30
2023-05-03T13:51:52.972Z,0.50
2023-05-03T13:54:20.544Z,0.52
2023-05-03T13:56:47.570Z,0.50
2023-05-03T13:59:14.593Z,0.30
2023-05-03T14:01:43.482Z,0.60
2023-05-03T14:04:10.911Z,0.43
2023-05-03T14:06:40.296Z,0.50
2023-05-03T14:09:09.207Z,0.60
2023-05-03T14:11:36.396Z,0.43
2023-05-03T14:14:03.816Z,0.60
2023-05-03T14:16:41.047Z,0.50
2023-05-03T14:19:11.288Z,0.30
2023-05-03T14:21:38.836Z,0.57
2023-05-03T14:24:06.880Z,0.60
2023-05-03T14:26:37.338Z,0.60
2023-05-03T14:29:04.276Z,0.65
2023-05-03T14:31:31.681Z,0.70
2023-05-03T14:33:59.757Z,0.43
2023-05-03T14:36:36.308Z,0.65
2023-05-03T14:39:04.451Z,0.63
2023-05-03T14:41:33.520Z,0.55
2023-05-03T14:44:01.254Z,0.60
2023-05-03T14:46:28.343Z,1.10
2023-05-03T14:48:55.779Z,0.57
2023-05-03T14:51:22.849Z,0.82
2023-05-03T14:53:49.936Z,0.80
2023-05-03T14:56:16.861Z,0.60
2023-05-03T14:58:44.698Z,0.40
2023-05-03T15:01:21.656Z,0.50
2023-05-03T15:03:49.998Z,0.50
2023-05-03T15:06:27.033Z,0.38
2023-05-03T15:08:55.241Z,0.38
2023-05-03T15:11:22.165Z,0.40
2023-05-03T15:13:48.820Z,0.60
2023-05-03T15:16:16.072Z,0.40
2023-05-03T15:18:48.266Z,0.40
2023-05-03T15:21:16.895Z,0.50
2023-05-03T15:23:43.634Z,0.50
2023-05-03T15:26:10.592Z,0.20
2023-05-03T15:28:37.340Z,1.02
2023-05-03T15:31:04.375Z,0.50
2023-05-03T15:33:41.134Z,1.25
2023-05-03T15:36:09.158Z,0.32
2023-05-03T15:38:36.279Z,0.57
2023-05-03T15:41:03.356Z,0.55
2023-05-03T15:43:30.245Z,0.47
2023-05-03T15:45:57.254Z,0.57
2023-05-03T15:48:24.302Z,0.40
2023-05-03T15:50:51.032Z,0.43
2023-05-03T15:53:17.818Z,0.47
2023-05-03T15:55:44.860Z,0.65
2023-05-03T15:58:11.727Z,0.43
2023-05-03T16:00:38.770Z,0.55
2023-05-03T16:03:06.125Z,0.70
2023-05-03T16:05:33.171Z,0.80
2023-05-03T16:08:00.215Z,1.40
2023-05-03T16:10:27.153Z,0.70
2023-05-03T16:12:54.444Z,0.50
2023-05-03T16:15:21.440Z,0.52
2023-05-03T16:17:58.509Z,0.50
2023-05-03T16:20:25.364Z,0.65
2023-05-03T16:22:53.030Z,0.40
2023-05-03T16:25:20.543Z,0.60
2023-05-03T16:27:47.553Z,0.50
2023-05-03T16:30:15.271Z,0.60
2023-05-03T16:32:43.626Z,0.50
2023-05-03T16:35:10.930Z,0.65
2023-05-03T16:37:37.928Z,0.50
2023-05-03T16:40:10.322Z,0.40
2023-05-03T16:42:41.741Z,1.00
2023-05-03T16:45:10.662Z,0.50
2023-05-03T16:47:38.441Z,0.60
2023-05-03T16:50:08.171Z,0.90
2023-05-03T16:52:43.245Z,0.70
2023-05-03T16:55:11.469Z,0.80
2023-05-03T16:57:40.542Z,0.60
2023-05-03T17:00:09.720Z,0.73
2023-05-03T17:02:41.457Z,0.70
2023-05-03T17:05:10.122Z,0.88
2023-05-03T17:07:37.252Z,0.65
2023-05-03T17:10:06.678Z,0.80
2023-05-03T17:12:34.366Z,0.68
2023-05-03T17:15:02.382Z,0.63
2023-05-03T17:17:31.310Z,0.73
2023-05-03T17:19:58.462Z,0.80
2023-05-03T17:22:25.485Z,0.80
2023-05-03T17:24:55.330Z,0.70
2023-05-03T17:27:24.380Z,0.88
2023-05-03T17:29:51.459Z,0.80
2023-05-03T17:32:18.525Z,0.55
2023-05-03T17:34:45.530Z,0.82
2023-05-03T17:37:12.514Z,0.82
2023-05-03T17:39:39.680Z,0.95
2023-05-03T17:42:06.920Z,0.70
2023-05-03T17:44:33.843Z,1.00
2023-05-03T17:47:07.132Z,0.90
2023-05-03T17:49:34.304Z,1.67
2023-05-03T17:52:01.348Z,0.85
2023-05-03T17:54:29.744Z,0.68
2023-05-03T17:56:56.657Z,0.88
2023-05-03T17:59:23.477Z,0.70
2023-05-03T18:01:50.260Z,0.75
2023-05-03T18:04:17.169Z,0.60
2023-05-03T18:06:44.145Z,1.15
2023-05-03T18:09:10.936Z,1.13
2023-05-03T18:11:38.050Z,0.70
2023-05-03T18:14:05.007Z,0.88
2023-05-03T18:16:32.468Z,0.93
2023-05-03T18:18:59.567Z,0.73
2023-05-03T18:21:27.968Z,1.10
2023-05-03T18:23:54.841Z,1.10
2023-05-03T18:26:21.628Z,0.90
2023-05-03T18:28:48.714Z,0.63
2023-05-03T18:31:15.697Z,0.82
2023-05-03T18:33:42.648Z,0.80
2023-05-03T18:36:11.918Z,0.82
2023-05-03T18:38:39.649Z,1.10
2023-05-03T18:41:14.648Z,0.80
2023-05-03T18:43:46.367Z,0.95
2023-05-03T18:46:20.110Z,1.05
2023-05-03T18:48:48.015Z,0.80
2023-05-03T18:51:15.049Z,1.50
2023-05-03T18:53:41.766Z,1.10
2023-05-03T18:56:08.778Z,1.08
2023-05-03T18:58:35.818Z,1.30
2023-05-03T19:01:04.993Z,1.17
2023-05-03T19:03:32.118Z,1.52
2023-05-03T19:06:07.526Z,0.95
2023-05-03T19:08:34.286Z,1.38
2023-05-03T19:11:12.913Z,1.70
2023-05-03T19:13:40.166Z,1.65
2023-05-03T19:16:07.522Z,1.30
2023-05-03T19:18:40.120Z,1.35
2023-05-03T19:21:07.616Z,1.52
2023-05-03T19:23:34.877Z,1.50
2023-05-03T19:26:01.857Z,1.40
2023-05-03T19:28:28.997Z,1.50
2023-05-03T19:30:55.959Z,1.50
2023-05-03T19:33:23.219Z,1.58
2023-05-03T19:35:50.076Z,1.80
2023-05-03T19:38:17.048Z,1.90
2023-05-03T19:40:58.627Z,1.52
2023-05-03T19:43:26.081Z,1.42
2023-05-03T19:45:53.167Z,1.90
2023-05-03T19:48:20.103Z,1.75
2023-05-03T19:50:47.851Z,1.88
2023-05-03T19:53:14.872Z,1.70
2023-05-03T19:55:41.952Z,1.75
2023-05-03T19:58:08.916Z,1.90
2023-05-03T20:00:35.765Z,1.50
2023-05-03T20:03:02.988Z,1.20
2023-05-03T20:05:29.970Z,1.75
2023-05-03T20:07:56.933Z,1.33
2023-05-03T20:10:23.931Z,1.20
2023-05-03T20:12:50.842Z,1.17
2023-05-03T20:15:17.973Z,1.25
2023-05-03T20:17:44.983Z,2.05
2023-05-03T20:20:12.922Z,1.40
2023-05-03T20:22:39.847Z,1.40
2023-05-03T20:25:07.869Z,1.60
2023-05-03T20:27:34.695Z,1.40
2023-05-03T20:30:01.881Z,1.95
2023-05-03T20:32:29.121Z,1.65
2023-05-03T20:34:56.114Z,1.33
2023-05-03T20:37:22.937Z,1.20
2023-05-03T20:39:49.916Z,1.60
2023-05-03T20:42:16.721Z,1.52
2023-05-03T20:44:44.455Z,1.27
2023-05-03T20:47:11.376Z,1.33
2023-05-03T20:49:40.405Z,1.58
2023-05-03T20:52:07.687Z,2.10
2023-05-03T20:54:34.769Z,1.60
2023-05-03T20:57:01.804Z,1.50
2023-05-03T20:59:29.266Z,1.60
2023-05-03T21:01:56.594Z,2.55
2023-05-03T21:04:25.625Z,2.35
2023-05-03T21:06:54.781Z,1.75
2023-05-03T21:09:21.723Z,1.70
2023-05-03T21:11:49.209Z,1.90
2023-05-03T21:14:16.753Z,1.80
2023-05-03T21:16:43.814Z,1.67
2023-05-03T21:19:11.098Z,1.50
2023-05-03T21:21:38.057Z,1.92
2023-05-03T21:24:05.236Z,1.75
2023-05-03T21:26:32.773Z,1.80
2023-05-03T21:29:00.509Z,1.50
2023-05-03T21:31:27.682Z,1.30
2023-05-03T21:33:54.680Z,1.80
2023-05-03T21:36:21.701Z,2.08
2023-05-03T21:38:52.215Z,1.70
2023-05-03T21:41:19.687Z,1.73
2023-05-03T21:43:46.848Z,1.40
2023-05-03T21:46:14.202Z,1.50
2023-05-03T21:48:41.356Z,1.58
2023-05-03T21:51:08.746Z,1.50
2023-05-03T21:53:35.828Z,1.50
2023-05-03T21:56:02.535Z,1.60
2023-05-03T21:58:29.710Z,1.70
2023-05-03T22:00:56.464Z,1.60
2023-05-03T22:03:23.497Z,1.50
2023-05-03T22:05:51.671Z,1.63
2023-05-03T22:08:18.785Z,1.55
2023-05-03T22:10:46.695Z,1.60
2023-05-03T22:13:13.806Z,1.50
2023-05-03T22:15:40.747Z,1.75
2023-05-03T22:18:07.839Z,1.63
2023-05-03T22:20:34.869Z,1.40
2023-05-03T22:23:01.816Z,1.83
2023-05-03T22:25:32.134Z,1.88
2023-05-03T22:27:59.725Z,1.63
2023-05-03T22:30:26.858Z,1.40
2023-05-03T22:32:54.180Z,1.70
2023-05-03T22:35:21.448Z,1.60
2023-05-03T22:37:48.412Z,2.00
2023-05-03T22:40:15.257Z,1.73
2023-05-03T22:42:42.432Z,1.75
2023-05-03T22:45:09.937Z,1.83
2023-05-03T22:47:36.928Z,1.70
2023-05-03T22:50:04.148Z,1.40
2023-05-03T22:52:31.922Z,1.60
2023-05-03T22:54:58.807Z,1.65
2023-05-03T22:57:25.658Z,1.50
2023-05-03T22:59:54.813Z,1.63
2023-05-03T23:02:21.729Z,1.80
2023-05-03T23:04:48.869Z,1.80
2023-05-03T23:07:15.754Z,1.75
2023-05-03T23:09:42.592Z,1.60
2023-05-03T23:12:09.505Z,1.60
2023-05-03T23:14:36.709Z,1.83
2023-05-03T23:17:03.782Z,3.15
2023-05-03T23:19:30.591Z,1.58
2023-05-03T23:21:57.291Z,2.00
2023-05-03T23:24:24.060Z,1.85
2023-05-03T23:26:50.945Z,1.60
2023-05-03T23:29:18.505Z,1.80
2023-05-03T23:31:45.889Z,1.58
2023-05-03T23:34:13.247Z,1.92
2023-05-03T23:36:40.272Z,2.13
2023-05-03T23:39:07.184Z,1.80
2023-05-03T23:41:34.171Z,1.83
2023-05-03T23:44:01.695Z,1.60
2023-05-03T23:46:28.759Z,1.75
2023-05-03T23:48:55.635Z,1.58
2023-05-03T23:51:22.386Z,2.00
2023-05-03T23:53:49.327Z,2.17
2023-05-03T23:56:16.324Z,1.73
2023-05-03T23:58:43.144Z,1.77
